Time,TemperatureF,DewpointF,PressureIn,WindDirection,WindDirectionDegrees,WindSpeedMPH,WindSpeedGustMPH,Humidity,HourlyPrecipIn,Conditions,Clouds,dailyrainin,SoftwareType,DateUTC
2013-06-22 00:01:00,51.4,46.1,30.07,South,180,0.0,0.0,82,0.00,RA,FEW,0.00,WeatherDisplay:10.37,2013-06-22 07:01:00,
2013-06-22 00:06:00,51.1,45.8,30.07,South,180,0.0,0.0,82,0.00,RA,FEW,0.00,WeatherDisplay:10.37,2013-06-22 07:06:00,
2013-06-22 00:11:00,51.1,45.8,30.08,South,180,0.0,0.0,82,0.00,CLR,FEW,0.00,WeatherDisplay:10.37,2013-06-22 07:11:00,
2013-06-22 00:16:00,50.7,45.4,30.07,South,180,0.0,0.0,82,0.00,CLR,FEW,0.00,WeatherDisplay:10.37,2013-06-22 07:16:00,
2013-06-22 00:21:00,50.7,45.4,30.07,South,180,0.0,0.0,82,0.00,CLR,FEW,0.00,WeatherDisplay:10.37,2013-06-22 07:21:00,
2013-06-22 00:26:00,50.7,45.4,30.08,South,180,0.0,0.0,82,0.00,CLR,FEW,0.00,WeatherDisplay:10.37,2013-06-22 07:26:00,
2013-06-22 00:31:00,50.5,45.2,30.07,South,180,0.0,0.0,82,0.00,CLR,FEW,0.00,WeatherDisplay:10.37,2013-06-22 07:31:00,
2013-06-22 00:36:00,50.2,45.2,30.07,South,180,0.0,0.0,83,0.00,CLR,FEW,0.00,WeatherDisplay:10.37,2013-06-22 07:36:00,
2013-06-22 00:41:00,50.2,45.2,30.07,SSW,202,0.0,0.0,83,0.00,CLR,FEW,0.00,WeatherDisplay:10.37,2013-06-22 07:41:00,
2013-06-22 00:46:00,50.2,45.2,30.08,SSW,202,0.0,0.0,83,0.00,CLR,FEW,0.00,WeatherDisplay:10.37,2013-06-22 07:46:00,
2013-06-22 00:51:00,50.0,45.4,30.08,SSW,202,0.0,0.0,84,0.00,CLR,FEW,0.00,WeatherDisplay:10.37,2013-06-22 07:51:00,
2013-06-22 00:56:00,49.8,45.2,30.08,SSW,202,0.0,0.0,84,0.00,CLR,FEW,0.00,WeatherDisplay:10.37,2013-06-22 07:56:00,
2013-06-22 01:01:00,49.8,45.5,30.08,SSW,202,0.0,0.0,85,0.00,CLR,FEW,0.00,WeatherDisplay:10.37,2013-06-22 08:01:00,
2013-06-22 01:06:00,49.8,45.5,30.08,SSW,202,0.0,0.0,85,0.00,CLR,FEW,0.00,WeatherDisplay:10.37,2013-06-22 08:06:00,
2013-06-22 01:11:00,49.8,45.5,30.08,SSW,202,0.0,0.0,85,0.00,CLR,FEW,0.00,WeatherDisplay:10.37,2013-06-22 08:11:00,
2013-06-22 01:16:00,49.8,45.5,30.08,SSW,202,0.0,0.0,85,0.00,CLR,FEW,0.00,WeatherDisplay:10.37,2013-06-22 08:16:00,
2013-06-22 01:21:00,49.8,45.5,30.07,SSW,202,0.0,0.0,85,0.00,CLR,FEW,0.00,WeatherDisplay:10.37,2013-06-22 08:21:00,
2013-06-22 01:26:00,49.8,45.5,30.07,SSW,202,0.0,0.0,85,0.00,CLR,FEW,0.00,WeatherDisplay:10.37,2013-06-22 08:26:00,
2013-06-22 01:31:00,49.6,45.3,30.08,SSW,202,0.0,0.0,85,0.00,CLR,FEW,0.00,WeatherDisplay:10.37,2013-06-22 08:31:00,
2013-06-22 01:36:00,49.6,45.3,30.08,SSW,202,0.0,0.0,85,0.00,CLR,FEW,0.00,WeatherDisplay:10.37,2013-06-22 08:36:00,
2013-06-22 01:41:00,49.6,45.3,30.08,SSW,202,0.0,0.0,85,0.00,CLR,FEW,0.00,WeatherDisplay:10.37,2013-06-22 08:41:00,
2013-06-22 01:46:00,49.8,45.5,30.08,SSW,202,0.0,0.0,85,0.00,CLR,FEW,0.00,WeatherDisplay:10.37,2013-06-22 08:46:00,
2013-06-22 01:51:00,49.8,45.5,30.08,SSW,202,0.0,0.0,85,0.00,CLR,FEW,0.00,WeatherDisplay:10.37,2013-06-22 08:51:00,
2013-06-22 01:56:00,49.8,45.5,30.08,SSW,202,0.0,0.0,85,0.00,CLR,FEW,0.00,WeatherDisplay:10.37,2013-06-22 08:56:00,
2013-06-22 02:01:00,50.0,45.7,30.08,SSW,202,0.0,0.0,85,0.00,CLR,FEW,0.00,WeatherDisplay:10.37,2013-06-22 09:01:00,
2013-06-22 02:06:00,50.2,45.8,30.08,SSW,202,0.0,0.0,85,0.00,CLR,FEW,0.00,WeatherDisplay:10.37,2013-06-22 09:06:00,
2013-06-22 02:11:00,50.4,46.0,30.08,SSW,202,0.0,0.0,85,0.00,CLR,FEW,0.00,WeatherDisplay:10.37,2013-06-22 09:11:00,
2013-06-22 02:16:00,50.5,46.2,30.08,SSW,202,0.0,0.0,85,0.00,CLR,FEW,0.00,WeatherDisplay:10.37,2013-06-22 09:16:00,
2013-06-22 02:21:00,50.7,46.4,30.08,SSW,202,0.0,0.0,85,0.00,CLR,FEW,0.00,WeatherDisplay:10.37,2013-06-22 09:21:00,
2013-06-22 02:26:00,50.7,46.4,30.08,SSW,202,0.0,0.0,85,0.00,CLR,FEW,0.00,WeatherDisplay:10.37,2013-06-22 09:26:00,
2013-06-22 02:31:00,50.7,46.4,30.08,SSW,202,0.0,0.0,85,0.00,CLR,FEW,0.00,WeatherDisplay:10.37,2013-06-22 09:31:00,
2013-06-22 02:36:00,50.7,46.4,30.08,SSW,202,0.0,0.0,85,0.00,CLR,FEW,0.00,WeatherDisplay:10.37,2013-06-22 09:36:00,
2013-06-22 02:41:00,50.7,46.4,30.09,SSW,202,0.0,0.0,85,0.00,CLR,FEW,0.00,WeatherDisplay:10.37,2013-06-22 09:41:00,
2013-06-22 02:46:00,50.7,46.7,30.08,SSW,202,0.0,0.0,86,0.00,CLR,FEW,0.00,WeatherDisplay:10.37,2013-06-22 09:46:00,
2013-06-22 02:51:00,50.7,46.7,30.08,SSW,202,0.0,0.0,86,0.00,CLR,FEW,0.00,WeatherDisplay:10.37,2013-06-22 09:51:00,
2013-06-22 02:56:00,50.9,46.9,30.08,SSW,202,0.0,0.0,86,0.00,CLR,FEW,0.00,WeatherDisplay:10.37,2013-06-22 09:56:00,
2013-06-22 03:01:00,50.9,46.9,30.09,SSW,202,0.0,0.0,86,0.00,CLR,FEW,0.00,WeatherDisplay:10.37,2013-06-22 10:01:00,
2013-06-22 03:06:00,50.9,46.9,30.08,SSW,202,0.0,0.0,86,0.00,CLR,FEW,0.00,WeatherDisplay:10.37,2013-06-22 10:06:00,
2013-06-22 03:11:00,50.9,46.9,30.08,SSW,202,0.0,0.0,86,0.00,CLR,FEW,0.00,WeatherDisplay:10.37,2013-06-22 10:11:00,
2013-06-22 03:16:00,50.9,46.6,30.08,SSW,202,0.0,0.0,85,0.00,CLR,FEW,0.00,WeatherDisplay:10.37,2013-06-22 10:16:00,
2013-06-22 03:21:00,50.9,46.6,30.08,SSW,202,0.0,0.0,85,0.00,CLR,FEW,0.00,WeatherDisplay:10.37,2013-06-22 10:21:00,
2013-06-22 03:27:00,50.9,46.6,30.08,SSW,202,0.0,0.0,85,0.00,CLR,FEW,0.00,WeatherDisplay:10.37,2013-06-22 10:27:00,
2013-06-22 03:32:00,51.1,46.7,30.08,SSW,202,0.0,0.0,85,0.00,CLR,FEW,0.00,WeatherDisplay:10.37,2013-06-22 10:32:00,
2013-06-22 03:37:00,51.1,46.7,30.08,SSW,202,0.0,0.0,85,0.00,CLR,FEW,0.00,WeatherDisplay:10.37,2013-06-22 10:37:00,
2013-06-22 03:42:00,51.1,46.7,30.08,SSW,202,0.0,0.0,85,0.00,CLR,FEW,0.00,WeatherDisplay:10.37,2013-06-22 10:42:00,
2013-06-22 03:47:00,51.1,46.7,30.08,SSW,202,0.0,0.0,85,0.00,CLR,FEW,0.00,WeatherDisplay:10.37,2013-06-22 10:47:00,
2013-06-22 03:52:00,51.1,46.7,30.08,SSW,202,0.0,0.0,85,0.00,CLR,FEW,0.00,WeatherDisplay:10.37,2013-06-22 10:52:00,
2013-06-22 03:57:00,51.1,46.7,30.08,SSW,202,0.0,0.0,85,0.00,CLR,FEW,0.00,WeatherDisplay:10.37,2013-06-22 10:57:00,
2013-06-22 04:02:00,51.1,46.7,30.08,SSW,202,0.0,0.0,85,0.00,CLR,FEW,0.00,WeatherDisplay:10.37,2013-06-22 11:02:00,
2013-06-22 04:07:00,51.1,46.7,30.08,SSW,202,0.0,0.0,85,0.00,CLR,FEW,0.00,WeatherDisplay:10.37,2013-06-22 11:07:00,
2013-06-22 04:12:00,51.3,46.9,30.08,SSW,202,0.0,0.0,85,0.00,CLR,FEW,0.00,WeatherDisplay:10.37,2013-06-22 11:12:00,
2013-06-22 04:17:00,51.3,47.2,30.08,SSW,202,0.0,0.0,86,0.00,CLR,FEW,0.00,WeatherDisplay:10.37,2013-06-22 11:17:00,
2013-06-22 04:22:00,51.4,47.4,30.07,SSW,202,0.0,0.0,86,0.00,CLR,FEW,0.00,WeatherDisplay:10.37,2013-06-22 11:22:00,
2013-06-22 04:27:00,51.4,47.4,30.07,SSW,202,0.0,0.0,86,0.00,CLR,FEW,0.00,WeatherDisplay:10.37,2013-06-22 11:27:00,
2013-06-22 04:32:00,51.4,47.4,30.07,SSW,202,0.0,0.0,86,0.00,CLR,FEW,0.00,WeatherDisplay:10.37,2013-06-22 11:32:00,
2013-06-22 04:37:00,51.4,47.4,30.07,SSW,202,0.0,0.0,86,0.00,CLR,FEW,0.00,WeatherDisplay:10.37,2013-06-22 11:37:00,
2013-06-22 04:42:00,51.4,47.4,30.07,SSW,202,0.0,0.0,86,0.00,CLR,FEW,0.00,WeatherDisplay:10.37,2013-06-22 11:42:00,
2013-06-22 04:47:00,51.6,47.6,30.07,SSW,202,0.0,0.0,86,0.00,CLR,FEW,0.00,WeatherDisplay:10.37,2013-06-22 11:47:00,
2013-06-22 04:52:00,51.4,47.4,30.07,SSW,202,0.0,0.0,86,0.00,CLR,FEW,0.00,WeatherDisplay:10.37,2013-06-22 11:52:00,
2013-06-22 04:57:00,51.4,47.4,30.07,SSW,202,0.0,0.0,86,0.00,CLR,FEW,0.00,WeatherDisplay:10.37,2013-06-22 11:57:00,
2013-06-22 05:02:00,51.4,47.4,30.08,SSW,202,0.0,0.0,86,0.00,CLR,FEW,0.00,WeatherDisplay:10.37,2013-06-22 12:02:00,
2013-06-22 05:07:00,51.4,47.4,30.07,SSW,202,0.0,0.0,86,0.00,CLR,FEW,0.00,WeatherDisplay:10.37,2013-06-22 12:07:00,
2013-06-22 05:12:00,51.6,47.6,30.07,SSW,202,0.0,0.0,86,0.00,CLR,FEW,0.00,WeatherDisplay:10.37,2013-06-22 12:12:00,
2013-06-22 05:17:00,51.4,47.4,30.07,SSW,202,0.0,0.0,86,0.00,CLR,FEW,0.00,WeatherDisplay:10.37,2013-06-22 12:17:00,
2013-06-22 05:22:00,51.4,47.4,30.07,SSW,202,0.0,0.0,86,0.00,CLR,FEW,0.00,WeatherDisplay:10.37,2013-06-22 12:22:00,
2013-06-22 05:27:00,51.4,47.4,30.07,SSW,202,0.0,0.0,86,0.00,CLR,FEW,0.00,WeatherDisplay:10.37,2013-06-22 12:27:00,
2013-06-22 05:32:00,51.4,47.4,30.08,SSW,202,0.0,0.0,86,0.00,CLR,FEW,0.00,WeatherDisplay:10.37,2013-06-22 12:32:00,
2013-06-22 05:37:00,51.6,47.6,30.08,SSW,202,0.0,0.0,86,0.00,CLR,FEW,0.00,WeatherDisplay:10.37,2013-06-22 12:37:00,
2013-06-22 05:42:00,51.6,47.6,30.08,SSW,202,0.0,0.0,86,0.00,CLR,FEW,0.00,WeatherDisplay:10.37,2013-06-22 12:42:00,
2013-06-22 05:47:00,51.8,47.7,30.08,SSW,202,0.0,0.0,86,0.00,CLR,FEW,0.00,WeatherDisplay:10.37,2013-06-22 12:47:00,
2013-06-22 05:52:00,52.0,47.9,30.08,SSW,202,0.0,0.0,86,0.00,CLR,FEW,0.00,WeatherDisplay:10.37,2013-06-22 12:52:00,
2013-06-22 05:57:00,52.2,48.1,30.08,SSW,202,0.0,0.0,86,0.00,CLR,FEW,0.00,WeatherDisplay:10.37,2013-06-22 12:57:00,
2013-06-22 06:02:00,52.0,47.9,30.07,SSW,202,0.0,0.0,86,0.00,CLR,FEW,0.00,WeatherDisplay:10.37,2013-06-22 13:02:00,
2013-06-22 06:07:00,52.0,47.9,30.08,SSW,202,0.0,0.0,86,0.00,CLR,FEW,0.00,WeatherDisplay:10.37,2013-06-22 13:07:00,
2013-06-22 06:12:00,52.3,48.3,30.08,SSW,202,0.0,0.0,86,0.00,CLR,FEW,0.00,WeatherDisplay:10.37,2013-06-22 13:12:00,
2013-06-22 06:17:00,52.3,48.3,30.08,SSW,202,0.0,0.0,86,0.00,CLR,FEW,0.00,WeatherDisplay:10.37,2013-06-22 13:17:00,
2013-06-22 06:22:00,52.5,48.5,30.08,SSW,202,0.0,0.0,86,0.00,CLR,FEW,0.00,WeatherDisplay:10.37,2013-06-22 13:22:00,
2013-06-22 06:27:00,52.9,48.8,30.08,NW,315,0.0,0.0,86,0.00,CLR,FEW,0.00,WeatherDisplay:10.37,2013-06-22 13:27:00,
2013-06-22 06:32:00,53.1,49.0,30.08,NW,315,0.0,0.0,86,0.00,CLR,FEW,0.00,WeatherDisplay:10.37,2013-06-22 13:32:00,
2013-06-22 06:37:00,53.2,48.8,30.08,NW,315,0.0,0.0,85,0.00,CLR,FEW,0.00,WeatherDisplay:10.37,2013-06-22 13:37:00,
2013-06-22 06:42:00,53.4,49.0,30.08,NW,315,0.0,0.0,85,0.00,CLR,FEW,0.00,WeatherDisplay:10.37,2013-06-22 13:42:00,
2013-06-22 06:47:00,53.4,49.0,30.08,NW,315,0.0,0.0,85,0.00,CLR,FEW,0.00,WeatherDisplay:10.37,2013-06-22 13:47:00,
2013-06-22 06:52:00,53.2,48.8,30.08,NW,315,0.0,0.0,85,0.00,CLR,FEW,0.00,WeatherDisplay:10.37,2013-06-22 13:52:00,
2013-06-22 06:57:00,53.2,48.8,30.08,NW,315,0.0,0.0,85,0.00,CLR,FEW,0.00,WeatherDisplay:10.37,2013-06-22 13:57:00,
2013-06-22 07:02:00,53.4,48.7,30.08,NW,315,0.0,0.0,84,0.00,CLR,FEW,0.00,WeatherDisplay:10.37,2013-06-22 14:02:00,
2013-06-22 07:07:00,53.4,48.7,30.08,NNW,338,0.0,0.0,84,0.00,CLR,FEW,0.00,WeatherDisplay:10.37,2013-06-22 14:07:00,
2013-06-22 07:12:00,53.6,48.9,30.08,NNW,338,0.0,0.0,84,0.00,CLR,FEW,0.00,WeatherDisplay:10.37,2013-06-22 14:12:00,
2013-06-22 07:17:00,54.0,49.2,30.08,NNW,338,0.0,0.0,84,0.00,CLR,FEW,0.00,WeatherDisplay:10.37,2013-06-22 14:17:00,
2013-06-22 07:22:00,54.1,49.4,30.08,NNW,338,0.0,0.0,84,0.00,CLR,FEW,0.00,WeatherDisplay:10.37,2013-06-22 14:22:00,
2013-06-22 07:27:00,54.5,49.8,30.08,East,90,0.0,0.0,84,0.00,CLR,FEW,0.00,WeatherDisplay:10.37,2013-06-22 14:27:00,
2013-06-22 07:32:00,55.2,50.1,30.08,East,90,0.0,0.0,83,0.00,CLR,FEW,0.00,WeatherDisplay:10.37,2013-06-22 14:32:00,
2013-06-22 07:37:00,55.8,50.7,30.08,East,90,0.0,0.0,83,0.00,CLR,FEW,0.00,WeatherDisplay:10.37,2013-06-22 14:37:00,
2013-06-22 07:42:00,56.5,51.1,30.08,ESE,112,0.0,0.0,82,0.00,CLR,FEW,0.00,WeatherDisplay:10.37,2013-06-22 14:42:00,
2013-06-22 07:47:00,57.0,51.2,30.08,ESE,112,0.0,0.0,81,0.00,CLR,FEW,0.00,WeatherDisplay:10.37,2013-06-22 14:47:00,
2013-06-22 07:52:00,58.3,52.1,30.07,ESE,112,0.0,0.0,80,0.00,CLR,FEW,0.00,WeatherDisplay:10.37,2013-06-22 14:52:00,
2013-06-22 07:57:00,59.0,52.1,30.08,ESE,112,0.0,0.0,78,0.00,CLR,FEW,0.00,WeatherDisplay:10.37,2013-06-22 14:57:00,
2013-06-22 08:02:00,61.5,53.9,30.07,ESE,112,0.0,0.0,76,0.00,CLR,FEW,0.00,WeatherDisplay:10.37,2013-06-22 15:02:00,
2013-06-22 08:07:00,61.9,53.5,30.07,ESE,112,0.0,0.0,74,0.00,CLR,FEW,0.00,WeatherDisplay:10.37,2013-06-22 15:07:00,
2013-06-22 08:12:00,63.1,54.3,30.07,ESE,112,0.0,0.0,73,0.00,CLR,FEW,0.00,WeatherDisplay:10.37,2013-06-22 15:12:00,
2013-06-22 08:17:00,63.9,54.3,30.07,ESE,112,0.0,0.0,71,0.00,CLR,FEW,0.00,WeatherDisplay:10.37,2013-06-22 15:17:00,
2013-06-22 08:22:00,64.2,54.2,30.06,ESE,112,0.0,0.0,70,0.00,CLR,FEW,0.00,WeatherDisplay:10.37,2013-06-22 15:22:00,
2013-06-22 08:27:00,64.0,52.9,30.06,ESE,112,0.0,0.0,67,0.00,CLR,FEW,0.00,WeatherDisplay:10.37,2013-06-22 15:27:00,
2013-06-22 08:32:00,63.3,52.6,30.07,ESE,112,0.0,0.0,68,0.00,CLR,FEW,0.00,WeatherDisplay:10.37,2013-06-22 15:32:00,
2013-06-22 08:37:00,63.3,52.6,30.07,ENE,68,0.0,0.0,68,0.00,CLR,FEW,0.00,WeatherDisplay:10.37,2013-06-22 15:37:00,
2013-06-22 08:42:00,64.0,53.3,30.07,ENE,68,0.0,0.0,68,0.00,CLR,FEW,0.00,WeatherDisplay:10.37,2013-06-22 15:42:00,
2013-06-22 08:47:00,64.0,52.9,30.07,ENE,68,0.0,0.0,67,0.00,CLR,FEW,0.00,WeatherDisplay:10.37,2013-06-22 15:47:00,
2013-06-22 08:52:00,64.4,52.8,30.07,ENE,68,0.0,0.0,66,0.00,CLR,FEW,0.00,WeatherDisplay:10.37,2013-06-22 15:52:00,
2013-06-22 08:57:00,65.3,52.4,30.07,ENE,68,0.0,0.0,63,0.00,CLR,FEW,0.00,WeatherDisplay:10.37,2013-06-22 15:57:00,
2013-06-22 09:02:00,65.8,53.3,30.06,ENE,68,0.0,0.0,64,0.00,CLR,FEW,0.00,WeatherDisplay:10.37,2013-06-22 16:02:00,
2013-06-22 09:07:00,66.2,52.8,30.06,ENE,68,0.0,0.0,62,0.00,CLR,FEW,0.00,WeatherDisplay:10.37,2013-06-22 16:07:00,
2013-06-22 09:12:00,65.8,52.0,30.06,East,90,0.0,0.0,61,0.00,CLR,FEW,0.00,WeatherDisplay:10.37,2013-06-22 16:12:00,
2013-06-22 09:17:00,66.0,52.6,30.06,ENE,68,0.0,0.0,62,0.00,CLR,FEW,0.00,WeatherDisplay:10.37,2013-06-22 16:17:00,
2013-06-22 09:22:00,67.1,52.7,30.06,ENE,68,0.0,0.0,60,0.00,CLR,FEW,0.00,WeatherDisplay:10.37,2013-06-22 16:22:00,
2013-06-22 09:27:00,67.8,52.0,30.06,ESE,112,0.0,0.0,57,0.00,CLR,FEW,0.00,WeatherDisplay:10.37,2013-06-22 16:27:00,
2013-06-22 09:32:00,68.0,52.2,30.06,SE,135,0.0,0.0,57,0.00,CLR,FEW,0.00,WeatherDisplay:10.37,2013-06-22 16:32:00,
2013-06-22 09:37:00,68.0,51.7,30.06,SE,135,0.0,0.0,56,0.00,CLR,FEW,0.00,WeatherDisplay:10.37,2013-06-22 16:37:00,
2013-06-22 09:42:00,68.0,52.2,30.06,SE,135,0.0,0.0,57,0.00,CLR,FEW,0.00,WeatherDisplay:10.37,2013-06-22 16:42:00,
2013-06-22 09:47:00,67.8,51.5,30.06,SE,135,1.1,1.1,56,0.00,CLR,FEW,0.00,WeatherDisplay:10.37,2013-06-22 16:47:00,
2013-06-22 09:52:00,67.6,51.4,30.06,ESE,112,1.1,1.1,56,0.00,CLR,FEW,0.00,WeatherDisplay:10.37,2013-06-22 16:52:00,
2013-06-22 09:57:00,67.8,51.5,30.06,ESE,112,0.0,0.0,56,0.00,CLR,FEW,0.00,WeatherDisplay:10.37,2013-06-22 16:57:00,
2013-06-22 10:02:00,67.8,51.5,30.05,ESE,112,0.0,0.0,56,0.00,CLR,FEW,0.00,WeatherDisplay:10.37,2013-06-22 17:02:00,
2013-06-22 10:07:00,68.0,52.2,30.05,ESE,112,0.0,0.0,57,0.00,CLR,FEW,0.00,WeatherDisplay:10.37,2013-06-22 17:07:00,
2013-06-22 10:12:00,68.7,51.9,30.05,SE,135,0.0,0.0,55,0.00,CLR,FEW,0.00,WeatherDisplay:10.37,2013-06-22 17:12:00,
2013-06-22 10:17:00,68.7,51.4,30.05,ESE,112,0.0,0.0,54,0.00,CLR,FEW,0.00,WeatherDisplay:10.37,2013-06-22 17:17:00,
2013-06-22 10:22:00,69.6,52.2,30.05,NE,45,2.0,0.0,54,0.00,CLR,FEW,0.00,WeatherDisplay:10.37,2013-06-22 17:22:00,
2013-06-22 10:27:00,70.5,52.6,30.05,NE,45,0.0,0.0,53,0.00,CLR,FEW,0.00,WeatherDisplay:10.37,2013-06-22 17:27:00,
2013-06-22 10:32:00,71.2,52.2,30.05,ENE,68,0.0,0.0,51,0.00,CLR,FEW,0.00,WeatherDisplay:10.37,2013-06-22 17:32:00,
2013-06-22 10:37:00,70.7,51.1,30.04,ESE,112,0.0,0.0,50,0.00,CLR,FEW,0.00,WeatherDisplay:10.37,2013-06-22 17:37:00,
2013-06-22 10:42:00,70.7,51.1,30.04,ESE,112,0.0,0.0,50,0.00,CLR,FEW,0.00,WeatherDisplay:10.37,2013-06-22 17:42:00,
2013-06-22 10:47:00,71.2,51.6,30.05,ESE,112,0.0,0.0,50,0.00,CLR,FEW,0.00,WeatherDisplay:10.37,2013-06-22 17:47:00,
2013-06-22 10:52:00,70.9,51.3,30.05,SE,135,3.1,3.1,50,0.00,CLR,FEW,0.00,WeatherDisplay:10.37,2013-06-22 17:52:00,
2013-06-22 10:57:00,70.5,50.4,30.04,SE,135,0.0,0.0,49,0.00,CLR,FEW,0.00,WeatherDisplay:10.37,2013-06-22 17:57:00,
2013-06-22 11:02:00,70.5,51.0,30.04,SE,135,1.1,1.1,50,0.00,CLR,FEW,0.00,WeatherDisplay:10.37,2013-06-22 18:02:00,
2013-06-22 11:07:00,70.2,50.1,30.04,ESE,112,2.3,2.3,49,0.00,CLR,FEW,0.00,WeatherDisplay:10.37,2013-06-22 18:07:00,
2013-06-22 11:12:00,69.6,50.2,30.04,ESE,112,2.3,2.3,50,0.00,CLR,FEW,0.00,WeatherDisplay:10.37,2013-06-22 18:12:00,
2013-06-22 11:17:00,69.6,50.2,30.04,SE,135,3.5,3.5,50,0.00,CLR,FEW,0.00,WeatherDisplay:10.37,2013-06-22 18:17:00,
2013-06-22 11:22:00,69.6,50.7,30.03,SE,135,0.4,0.0,51,0.00,CLR,FEW,0.00,WeatherDisplay:10.37,2013-06-22 18:22:00,
2013-06-22 11:27:00,70.0,50.5,30.03,SE,135,2.3,2.3,50,0.00,CLR,FEW,0.00,WeatherDisplay:10.37,2013-06-22 18:27:00,
2013-06-22 11:32:00,70.3,50.8,30.03,SSE,158,5.8,5.8,50,0.00,CLR,FEW,0.00,WeatherDisplay:10.37,2013-06-22 18:32:00,
2013-06-22 11:37:00,70.5,51.0,30.04,SE,135,6.0,6.0,50,0.00,CLR,FEW,0.00,WeatherDisplay:10.37,2013-06-22 18:37:00,
2013-06-22 11:42:00,70.5,51.0,30.03,SSE,158,0.0,0.0,50,0.00,CLR,FEW,0.00,WeatherDisplay:10.37,2013-06-22 18:42:00,
2013-06-22 11:47:00,70.7,50.6,30.03,SSE,158,2.3,2.3,49,0.00,CLR,FEW,0.00,WeatherDisplay:10.37,2013-06-22 18:47:00,
2013-06-22 11:52:00,70.9,51.3,30.03,SE,135,4.5,4.5,50,0.00,CLR,FEW,0.00,WeatherDisplay:10.37,2013-06-22 18:52:00,
2013-06-22 11:57:00,70.9,51.3,30.04,SSE,158,2.3,2.3,50,0.00,CLR,FEW,0.00,WeatherDisplay:10.37,2013-06-22 18:57:00,
2013-06-22 12:02:00,70.9,50.8,30.03,SE,135,4.6,0.0,49,0.00,CLR,FEW,0.00,WeatherDisplay:10.37,2013-06-22 19:02:00,
2013-06-22 12:07:00,70.9,51.3,30.03,SE,135,5.8,6.3,50,0.00,CLR,FEW,0.00,WeatherDisplay:10.37,2013-06-22 19:07:00,
2013-06-22 12:12:00,71.2,51.6,30.03,SE,135,7.2,7.2,50,0.00,CLR,FEW,0.00,WeatherDisplay:10.37,2013-06-22 19:12:00,
2013-06-22 12:17:00,71.2,50.5,30.03,SE,135,8.1,8.1,48,0.00,CLR,FEW,0.00,WeatherDisplay:10.37,2013-06-22 19:17:00,
2013-06-22 12:22:00,71.6,51.4,30.03,SE,135,4.6,4.7,49,0.00,CLR,FEW,0.00,WeatherDisplay:10.37,2013-06-22 19:22:00,
2013-06-22 12:27:00,72.0,50.0,30.03,SE,135,5.1,5.1,46,0.00,CLR,FEW,0.00,WeatherDisplay:10.37,2013-06-22 19:27:00,
2013-06-22 12:32:00,72.1,50.2,30.02,East,90,4.9,4.9,46,0.00,CLR,FEW,0.00,WeatherDisplay:10.37,2013-06-22 19:32:00,
2013-06-22 12:37:00,72.7,50.1,30.02,ENE,68,6.9,6.9,45,0.00,CLR,FEW,0.00,WeatherDisplay:10.37,2013-06-22 19:37:00,
2013-06-22 12:42:00,72.7,49.5,30.02,ENE,68,6.9,6.9,44,0.00,CLR,FEW,0.00,WeatherDisplay:10.37,2013-06-22 19:42:00,
2013-06-22 12:47:00,73.0,49.8,30.02,ENE,68,3.5,3.5,44,0.00,CLR,FEW,0.00,WeatherDisplay:10.37,2013-06-22 19:47:00,
2013-06-22 12:52:00,73.4,50.2,30.01,ESE,112,1.1,1.6,44,0.00,CLR,FEW,0.00,WeatherDisplay:10.37,2013-06-22 19:52:00,
2013-06-22 12:57:00,73.8,50.5,30.01,ESE,112,6.9,6.9,44,0.00,CLR,FEW,0.00,WeatherDisplay:10.37,2013-06-22 19:57:00,
2013-06-22 13:02:00,73.8,49.9,30.01,ESE,112,5.8,5.8,43,0.00,CLR,FEW,0.00,WeatherDisplay:10.37,2013-06-22 20:02:00,
2013-06-22 13:07:00,73.8,49.2,30.01,SE,135,8.1,8.1,42,0.00,CLR,FEW,0.00,WeatherDisplay:10.37,2013-06-22 20:07:00,
2013-06-22 13:12:00,74.1,50.2,30.01,SSE,158,3.5,3.5,43,0.00,CLR,FEW,0.00,WeatherDisplay:10.37,2013-06-22 20:12:00,
2013-06-22 13:17:00,74.3,49.1,30.00,SSE,158,0.0,0.0,41,0.00,CLR,FEW,0.00,WeatherDisplay:10.37,2013-06-22 20:17:00,
2013-06-22 13:22:00,74.5,48.6,30.00,SSW,202,0.0,0.0,40,0.00,CLR,FEW,0.00,WeatherDisplay:10.37,2013-06-22 20:22:00,
2013-06-22 13:27:00,74.8,48.9,30.01,South,180,4.6,4.6,40,0.00,CLR,FEW,0.00,WeatherDisplay:10.37,2013-06-22 20:27:00,
2013-06-22 13:32:00,75.0,49.7,30.00,South,180,3.5,3.5,41,0.00,CLR,FEW,0.00,WeatherDisplay:10.37,2013-06-22 20:32:00,
2013-06-22 13:37:00,75.4,48.7,30.00,SSE,158,6.9,6.9,39,0.00,CLR,FEW,0.00,WeatherDisplay:10.37,2013-06-22 20:37:00,
2013-06-22 13:42:00,75.6,48.9,30.00,ENE,68,0.0,0.0,39,0.00,CLR,FEW,0.00,WeatherDisplay:10.37,2013-06-22 20:42:00,
2013-06-22 13:47:00,75.7,49.7,30.00,ESE,112,6.9,6.9,40,0.00,CLR,FEW,0.00,WeatherDisplay:10.37,2013-06-22 20:47:00,
2013-06-22 13:52:00,75.6,48.9,30.00,SE,135,0.0,0.0,39,0.00,CLR,FEW,0.00,WeatherDisplay:10.37,2013-06-22 20:52:00,
2013-06-22 13:57:00,75.4,49.4,30.00,SSE,158,2.3,2.3,40,0.00,CLR,FEW,0.00,WeatherDisplay:10.37,2013-06-22 20:57:00,
2013-06-22 14:02:00,75.6,49.5,30.00,SSW,202,0.0,0.0,40,0.00,CLR,FEW,0.00,WeatherDisplay:10.37,2013-06-22 21:02:00,
2013-06-22 14:07:00,76.3,50.2,29.99,SW,225,0.0,0.0,40,0.00,CLR,FEW,0.00,WeatherDisplay:10.37,2013-06-22 21:07:00,
2013-06-22 14:12:00,77.0,50.1,30.00,SW,225,0.0,0.0,39,0.00,CLR,FEW,0.00,WeatherDisplay:10.37,2013-06-22 21:12:00,
2013-06-22 14:17:00,77.4,50.5,29.99,SSW,202,0.0,0.0,39,0.00,CLR,FEW,0.00,WeatherDisplay:10.37,2013-06-22 21:17:00,
2013-06-22 14:22:00,76.5,49.7,29.99,South,180,4.6,4.6,39,0.00,CLR,FEW,0.00,WeatherDisplay:10.37,2013-06-22 21:22:00,
2013-06-22 14:27:00,75.9,49.9,29.99,South,180,0.0,0.0,40,0.00,CLR,FEW,0.00,WeatherDisplay:10.37,2013-06-22 21:27:00,
2013-06-22 14:32:00,75.7,49.7,29.99,South,180,0.0,0.0,40,0.00,CLR,FEW,0.00,WeatherDisplay:10.37,2013-06-22 21:32:00,
2013-06-22 14:37:00,75.9,50.5,29.99,SSW,202,0.0,0.0,41,0.00,CLR,FEW,0.00,WeatherDisplay:10.37,2013-06-22 21:37:00,
2013-06-22 14:43:00,76.1,49.3,29.99,SSW,202,0.0,0.0,39,0.00,CLR,FEW,0.00,WeatherDisplay:10.37,2013-06-22 21:43:00,
2013-06-22 14:48:00,76.1,49.3,29.99,South,180,0.0,0.0,39,0.00,CLR,FEW,0.00,WeatherDisplay:10.37,2013-06-22 21:48:00,
2013-06-22 14:53:00,75.9,49.2,29.98,South,180,0.0,0.0,39,0.00,CLR,FEW,0.00,WeatherDisplay:10.37,2013-06-22 21:53:00,
2013-06-22 14:58:00,75.9,49.9,29.98,NNE,22,0.0,0.0,40,0.00,CLR,FEW,0.00,WeatherDisplay:10.37,2013-06-22 21:58:00,
2013-06-22 15:03:00,76.1,50.7,29.98,NNE,22,0.0,0.0,41,0.00,CLR,FEW,0.00,WeatherDisplay:10.37,2013-06-22 22:03:00,
2013-06-22 15:08:00,76.8,51.3,29.98,NNE,22,0.0,0.0,41,0.00,CLR,FEW,0.00,WeatherDisplay:10.37,2013-06-22 22:08:00,
2013-06-22 15:13:00,77.0,50.1,29.97,ESE,112,0.0,0.0,39,0.00,CLR,FEW,0.00,WeatherDisplay:10.37,2013-06-22 22:13:00,
2013-06-22 15:18:00,75.9,49.2,29.98,ESE,112,5.1,5.1,39,0.00,CLR,FEW,0.00,WeatherDisplay:10.37,2013-06-22 22:18:00,
2013-06-22 15:23:00,75.6,48.9,29.98,ENE,68,0.0,0.0,39,0.00,CLR,FEW,0.00,WeatherDisplay:10.37,2013-06-22 22:23:00,
2013-06-22 15:28:00,75.4,48.7,29.98,ENE,68,5.1,5.1,39,0.00,CLR,FEW,0.00,WeatherDisplay:10.37,2013-06-22 22:28:00,
2013-06-22 15:33:00,75.4,48.7,29.97,ESE,112,0.0,0.0,39,0.00,CLR,FEW,0.00,WeatherDisplay:10.37,2013-06-22 22:33:00,
2013-06-22 15:38:00,75.0,49.1,29.97,ENE,68,0.0,0.0,40,0.00,CLR,FEW,0.00,WeatherDisplay:10.37,2013-06-22 22:38:00,
2013-06-22 15:43:00,75.0,49.1,29.97,East,90,0.0,0.0,40,0.00,CLR,FEW,0.00,WeatherDisplay:10.37,2013-06-22 22:43:00,
2013-06-22 15:48:00,75.0,48.4,29.97,ESE,112,4.6,4.6,39,0.00,CLR,FEW,0.00,WeatherDisplay:10.37,2013-06-22 22:48:00,
2013-06-22 15:53:00,74.8,48.2,29.96,ESE,112,0.0,0.0,39,0.00,CLR,FEW,0.00,WeatherDisplay:10.37,2013-06-22 22:53:00,
2013-06-22 15:58:00,74.8,48.2,29.96,East,90,0.0,0.0,39,0.00,CLR,FEW,0.00,WeatherDisplay:10.37,2013-06-22 22:58:00,
2013-06-22 16:03:00,75.0,48.4,29.96,East,90,0.0,0.0,39,0.00,CLR,FEW,0.00,WeatherDisplay:10.37,2013-06-22 23:03:00,
2013-06-22 16:08:00,75.4,49.4,29.96,NE,45,0.0,0.0,40,0.00,CLR,FEW,0.00,WeatherDisplay:10.37,2013-06-22 23:08:00,
2013-06-22 16:13:00,75.7,49.0,29.96,NE,45,0.0,0.0,39,0.00,CLR,FEW,0.00,WeatherDisplay:10.37,2013-06-22 23:13:00,
2013-06-22 16:18:00,75.9,49.2,29.96,NW,315,8.1,8.1,39,0.00,CLR,FEW,0.00,WeatherDisplay:10.37,2013-06-22 23:18:00,
2013-06-22 16:23:00,75.9,48.5,29.95,NW,315,5.1,5.1,38,0.00,CLR,FEW,0.00,WeatherDisplay:10.37,2013-06-22 23:23:00,
2013-06-22 16:28:00,76.1,47.9,29.95,North,0,5.8,5.8,37,0.00,CLR,FEW,0.00,WeatherDisplay:10.37,2013-06-22 23:28:00,
2013-06-22 16:33:00,76.3,48.1,29.95,NNW,338,8.1,8.1,37,0.00,CLR,FEW,0.00,WeatherDisplay:10.37,2013-06-22 23:33:00,
2013-06-22 16:38:00,75.9,47.8,29.95,NNE,22,4.6,4.6,37,0.00,CLR,FEW,0.00,WeatherDisplay:10.37,2013-06-22 23:38:00,
2013-06-22 16:43:00,75.7,48.3,29.95,NNE,22,0.0,0.0,38,0.00,CLR,FEW,0.00,WeatherDisplay:10.37,2013-06-22 23:43:00,
2013-06-22 16:48:00,76.1,47.9,29.95,WNW,292,2.5,2.5,37,0.00,CLR,FEW,0.00,WeatherDisplay:10.37,2013-06-22 23:48:00,
2013-06-22 16:53:00,76.3,48.8,29.95,WNW,292,6.3,6.3,38,0.00,CLR,FEW,0.00,WeatherDisplay:10.37,2013-06-22 23:53:00,
2013-06-22 16:58:00,76.5,49.0,29.95,WNW,292,0.0,0.0,38,0.00,CLR,FEW,0.00,WeatherDisplay:10.37,2013-06-22 23:58:00,
2013-06-22 17:03:00,76.1,47.9,29.94,NW,315,5.1,5.1,37,0.00,CLR,FEW,0.00,WeatherDisplay:10.37,2013-06-23 00:03:00,
2013-06-22 17:08:00,75.9,48.5,29.94,NW,315,4.9,4.9,38,0.00,CLR,FEW,0.00,WeatherDisplay:10.37,2013-06-23 00:08:00,
2013-06-22 17:13:00,75.9,48.5,29.93,NW,315,5.8,5.8,38,0.00,CLR,FEW,0.00,WeatherDisplay:10.37,2013-06-23 00:13:00,
2013-06-22 17:18:00,75.7,48.3,29.93,NW,315,5.8,5.8,38,0.00,CLR,FEW,0.00,WeatherDisplay:10.37,2013-06-23 00:18:00,
2013-06-22 17:23:00,75.7,49.0,29.93,NW,315,4.0,4.0,39,0.00,CLR,FEW,0.00,WeatherDisplay:10.37,2013-06-23 00:23:00,
2013-06-22 17:28:00,75.7,48.3,29.93,WSW,248,8.1,8.1,38,0.00,CLR,FEW,0.00,WeatherDisplay:10.37,2013-06-23 00:28:00,
2013-06-22 17:33:00,75.7,47.6,29.93,WNW,292,4.7,4.7,37,0.00,CLR,FEW,0.00,WeatherDisplay:10.37,2013-06-23 00:33:00,
2013-06-22 17:38:00,75.7,48.3,29.92,NW,315,4.6,0.0,38,0.00,CLR,FEW,0.00,WeatherDisplay:10.37,2013-06-23 00:38:00,
2013-06-22 17:43:00,75.7,48.3,29.93,NW,315,7.4,7.4,38,0.00,CLR,FEW,0.00,WeatherDisplay:10.37,2013-06-23 00:43:00,
2013-06-22 17:48:00,75.7,49.0,29.92,NW,315,2.3,2.3,39,0.00,CLR,FEW,0.00,WeatherDisplay:10.37,2013-06-23 00:48:00,
2013-06-22 17:53:00,75.9,48.5,29.92,WNW,292,6.9,6.9,38,0.00,CLR,FEW,0.00,WeatherDisplay:10.37,2013-06-23 00:53:00,
2013-06-22 17:58:00,75.9,48.5,29.92,NNW,338,8.1,8.1,38,0.00,CLR,FEW,0.00,WeatherDisplay:10.37,2013-06-23 00:58:00,
2013-06-22 18:03:00,75.9,49.2,29.92,West,270,0.0,0.0,39,0.00,CLR,FEW,0.00,WeatherDisplay:10.37,2013-06-23 01:03:00,
2013-06-22 18:08:00,76.3,48.8,29.91,West,270,5.8,0.0,38,0.00,CLR,FEW,0.00,WeatherDisplay:10.37,2013-06-23 01:08:00,
2013-06-22 18:13:00,76.6,48.4,29.92,West,270,0.0,0.0,37,0.00,CLR,FEW,0.00,WeatherDisplay:10.37,2013-06-23 01:13:00,
2013-06-22 18:18:00,77.4,49.8,29.92,WSW,248,0.0,0.0,38,0.00,CLR,FEW,0.00,WeatherDisplay:10.37,2013-06-23 01:18:00,
2013-06-22 18:23:00,77.7,50.1,29.92,WSW,248,0.0,0.0,38,0.00,CLR,FEW,0.00,WeatherDisplay:10.37,2013-06-23 01:23:00,
2013-06-22 18:28:00,78.4,50.0,29.91,West,270,0.0,0.0,37,0.00,CLR,FEW,0.00,WeatherDisplay:10.37,2013-06-23 01:28:00,
2013-06-22 18:33:00,78.6,50.2,29.92,SW,225,0.0,0.0,37,0.00,CLR,FEW,0.00,WeatherDisplay:10.37,2013-06-23 01:33:00,
2013-06-22 18:38:00,78.4,50.7,29.92,SW,225,0.0,0.0,38,0.00,CLR,FEW,0.00,WeatherDisplay:10.37,2013-06-23 01:38:00,
2013-06-22 18:43:00,78.3,51.3,29.91,SW,225,0.0,0.0,39,0.00,CLR,FEW,0.00,WeatherDisplay:10.37,2013-06-23 01:43:00,
2013-06-22 18:48:00,78.6,50.2,29.91,SW,225,0.0,0.0,37,0.00,CLR,FEW,0.00,WeatherDisplay:10.37,2013-06-23 01:48:00,
2013-06-22 18:53:00,79.2,49.1,29.91,West,270,0.0,0.0,35,0.00,CLR,FEW,0.00,WeatherDisplay:10.37,2013-06-23 01:53:00,
2013-06-22 18:58:00,79.5,49.5,29.92,NW,315,6.9,6.9,35,0.00,CLR,FEW,0.00,WeatherDisplay:10.37,2013-06-23 01:58:00,
2013-06-22 19:03:00,79.0,49.7,29.92,NW,315,0.0,0.0,36,0.00,CLR,FEW,0.00,WeatherDisplay:10.37,2013-06-23 02:03:00,
2013-06-22 19:08:00,79.0,49.7,29.91,NW,315,0.0,0.0,36,0.00,CLR,FEW,0.00,WeatherDisplay:10.37,2013-06-23 02:08:00,
2013-06-22 19:13:00,79.0,49.7,29.91,NW,315,0.0,0.0,36,0.00,CLR,FEW,0.00,WeatherDisplay:10.37,2013-06-23 02:13:00,
2013-06-22 19:18:00,79.0,50.5,29.91,NW,315,0.0,0.0,37,0.00,CLR,FEW,0.00,WeatherDisplay:10.37,2013-06-23 02:18:00,
2013-06-22 19:23:00,78.6,52.3,29.91,NW,315,0.0,0.0,40,0.00,CLR,FEW,0.00,WeatherDisplay:10.37,2013-06-23 02:23:00,
2013-06-22 19:28:00,77.9,52.3,29.91,NW,315,0.0,0.0,41,0.00,CLR,FEW,0.00,WeatherDisplay:10.37,2013-06-23 02:28:00,
2013-06-22 19:33:00,76.8,52.0,29.91,NW,315,0.0,0.0,42,0.00,CLR,FEW,0.00,WeatherDisplay:10.37,2013-06-23 02:33:00,
2013-06-22 19:38:00,75.9,51.2,29.91,NW,315,0.0,0.0,42,0.00,CLR,FEW,0.00,WeatherDisplay:10.37,2013-06-23 02:38:00,
2013-06-22 19:43:00,75.2,50.5,29.91,NW,315,0.0,0.0,42,0.00,CLR,FEW,0.00,WeatherDisplay:10.37,2013-06-23 02:43:00,
2013-06-22 19:48:00,73.9,50.6,29.91,NW,315,0.0,0.0,44,0.00,CLR,FEW,0.00,WeatherDisplay:10.37,2013-06-23 02:48:00,
2013-06-22 19:53:00,73.0,51.6,29.91,NW,315,0.0,0.0,47,0.00,CLR,FEW,0.00,WeatherDisplay:10.37,2013-06-23 02:53:00,
2013-06-22 19:58:00,72.1,51.4,29.91,NW,315,0.0,0.0,48,0.00,CLR,FEW,0.00,WeatherDisplay:10.37,2013-06-23 02:58:00,
2013-06-22 20:03:00,71.2,50.5,29.91,NW,315,0.0,0.0,48,0.00,CLR,FEW,0.00,WeatherDisplay:10.37,2013-06-23 03:03:00,
2013-06-22 20:08:00,70.3,50.3,29.91,NW,315,0.0,0.0,49,0.00,CLR,FEW,0.00,WeatherDisplay:10.37,2013-06-23 03:08:00,
2013-06-22 20:13:00,69.6,50.2,29.91,NW,315,0.0,0.0,50,0.00,CLR,FEW,0.00,WeatherDisplay:10.37,2013-06-23 03:13:00,
2013-06-22 20:18:00,68.7,49.9,29.91,NW,315,0.0,0.0,51,0.00,CLR,FEW,0.00,WeatherDisplay:10.37,2013-06-23 03:18:00,
2013-06-22 20:23:00,68.2,49.4,29.91,NW,315,0.0,0.0,51,0.00,CLR,FEW,0.00,WeatherDisplay:10.37,2013-06-23 03:23:00,
2013-06-22 20:28:00,67.5,49.2,29.91,NW,315,0.0,0.0,52,0.00,CLR,FEW,0.00,WeatherDisplay:10.37,2013-06-23 03:28:00,
2013-06-22 20:33:00,66.9,49.2,29.91,NW,315,0.0,0.0,53,0.00,CLR,FEW,0.00,WeatherDisplay:10.37,2013-06-23 03:33:00,
2013-06-22 20:38:00,66.6,49.4,29.91,NW,315,0.0,0.0,54,0.00,CLR,FEW,0.00,WeatherDisplay:10.37,2013-06-23 03:38:00,
2013-06-22 20:43:00,65.5,49.4,29.91,NW,315,0.0,0.0,56,0.00,CLR,FEW,0.00,WeatherDisplay:10.37,2013-06-23 03:43:00,
2013-06-22 20:48:00,64.8,49.2,29.91,NW,315,0.0,0.0,57,0.00,CLR,FEW,0.00,WeatherDisplay:10.37,2013-06-23 03:48:00,
2013-06-22 20:53:00,64.2,48.7,29.91,NW,315,0.0,0.0,57,0.00,CLR,FEW,0.00,WeatherDisplay:10.37,2013-06-23 03:53:00,
2013-06-22 20:58:00,63.7,48.6,29.92,NW,315,0.0,0.0,58,0.00,CLR,FEW,0.00,WeatherDisplay:10.37,2013-06-23 03:58:00,
2013-06-22 21:01:00,63.5,48.9,29.92,NW,315,0.0,0.0,59,0.00,CLR,FEW,0.00,WeatherDisplay:10.37,2013-06-23 04:01:00,
2013-06-22 21:06:00,63.1,49.0,29.92,NW,315,0.0,0.0,60,0.00,CLR,FEW,0.00,WeatherDisplay:10.37,2013-06-23 04:06:00,
2013-06-22 21:11:00,62.4,48.3,29.92,NW,315,0.0,0.0,60,0.00,CLR,FEW,0.00,WeatherDisplay:10.37,2013-06-23 04:11:00,
2013-06-22 21:16:00,62.2,48.6,29.92,NW,315,0.0,0.0,61,0.00,CLR,FEW,0.00,WeatherDisplay:10.37,2013-06-23 04:16:00,
2013-06-22 21:21:00,61.9,48.7,29.92,NW,315,0.0,0.0,62,0.00,CLR,FEW,0.00,WeatherDisplay:10.37,2013-06-23 04:21:00,
2013-06-22 21:26:00,61.3,48.6,29.92,NW,315,0.0,0.0,63,0.00,CLR,FEW,0.00,WeatherDisplay:10.37,2013-06-23 04:26:00,
2013-06-22 21:31:00,61.0,48.7,29.92,NW,315,0.0,0.0,64,0.00,CLR,FEW,0.00,WeatherDisplay:10.37,2013-06-23 04:31:00,
2013-06-22 21:36:00,60.6,48.4,29.92,NW,315,0.0,0.0,64,0.00,CLR,FEW,0.00,WeatherDisplay:10.37,2013-06-23 04:36:00,
2013-06-22 21:41:00,60.4,48.6,29.92,NW,315,0.0,0.0,65,0.00,CLR,FEW,0.00,WeatherDisplay:10.37,2013-06-23 04:41:00,
2013-06-22 21:46:00,60.1,48.7,29.92,NW,315,0.0,0.0,66,0.00,CLR,FEW,0.00,WeatherDisplay:10.37,2013-06-23 04:46:00,
2013-06-22 21:51:00,59.5,48.2,29.92,NW,315,0.0,0.0,66,0.00,CLR,FEW,0.00,WeatherDisplay:10.37,2013-06-23 04:51:00,
2013-06-22 21:56:00,59.2,48.2,29.92,NW,315,0.0,0.0,67,0.00,CLR,FEW,0.00,WeatherDisplay:10.37,2013-06-23 04:56:00,
2013-06-22 22:01:00,58.8,48.3,29.93,NW,315,0.0,0.0,68,0.00,CLR,FEW,0.00,WeatherDisplay:10.37,2013-06-23 05:01:00,
2013-06-22 22:06:00,58.8,48.3,29.93,NW,315,0.0,0.0,68,0.00,CLR,FEW,0.00,WeatherDisplay:10.37,2013-06-23 05:06:00,
2013-06-22 22:11:00,58.6,48.1,29.92,NW,315,0.0,0.0,68,0.00,CLR,FEW,0.00,WeatherDisplay:10.37,2013-06-23 05:11:00,
2013-06-22 22:16:00,58.1,47.6,29.92,WNW,292,0.0,0.0,68,0.00,CLR,FEW,0.00,WeatherDisplay:10.37,2013-06-23 05:16:00,
2013-06-22 22:21:00,57.9,47.8,29.93,WNW,292,0.0,0.0,69,0.00,CLR,FEW,0.00,WeatherDisplay:10.37,2013-06-23 05:21:00,
2013-06-22 22:26:00,57.7,48.0,29.93,SE,135,3.5,3.5,70,0.00,CLR,FEW,0.00,WeatherDisplay:10.37,2013-06-23 05:26:00,
2013-06-22 22:31:00,57.4,47.7,29.93,SE,135,0.0,0.0,70,0.00,CLR,FEW,0.00,WeatherDisplay:10.37,2013-06-23 05:31:00,
2013-06-22 22:36:00,56.8,47.5,29.93,SE,135,0.0,0.0,71,0.00,CLR,FEW,0.00,WeatherDisplay:10.37,2013-06-23 05:36:00,
2013-06-22 22:41:00,56.7,47.4,29.93,SE,135,0.0,0.0,71,0.00,CLR,FEW,0.00,WeatherDisplay:10.37,2013-06-23 05:41:00,
2013-06-22 22:46:00,56.5,47.6,29.93,SE,135,0.0,0.0,72,0.00,CLR,FEW,0.00,WeatherDisplay:10.37,2013-06-23 05:46:00,
2013-06-22 22:51:00,56.3,47.4,29.93,SE,135,0.0,0.0,72,0.00,CLR,FEW,0.00,WeatherDisplay:10.37,2013-06-23 05:51:00,
2013-06-22 22:56:00,56.1,47.2,29.93,SE,135,0.0,0.0,72,0.00,CLR,FEW,0.00,WeatherDisplay:10.37,2013-06-23 05:56:00,
2013-06-22 23:01:00,55.9,47.4,29.93,SE,135,0.0,0.0,73,0.00,CLR,FEW,0.00,WeatherDisplay:10.37,2013-06-23 06:01:00,
2013-06-22 23:06:00,55.9,47.4,29.93,SE,135,0.0,0.0,73,0.00,CLR,FEW,0.00,WeatherDisplay:10.37,2013-06-23 06:06:00,
2013-06-22 23:11:00,55.8,47.2,29.93,SE,135,0.0,0.0,73,0.00,CLR,FEW,0.00,WeatherDisplay:10.37,2013-06-23 06:11:00,
2013-06-22 23:16:00,55.6,47.1,29.93,SE,135,0.0,0.0,73,0.00,CLR,FEW,0.00,WeatherDisplay:10.37,2013-06-23 06:16:00,
2013-06-22 23:21:00,55.4,46.9,29.93,SE,135,0.0,0.0,73,0.00,CLR,FEW,0.00,WeatherDisplay:10.37,2013-06-23 06:21:00,
2013-06-22 23:26:00,55.2,47.1,29.93,SE,135,0.0,0.0,74,0.00,CLR,FEW,0.00,WeatherDisplay:10.37,2013-06-23 06:26:00,
2013-06-22 23:31:00,55.0,46.9,29.92,SE,135,0.0,0.0,74,0.00,CLR,FEW,0.00,WeatherDisplay:10.37,2013-06-23 06:31:00,
2013-06-22 23:36:00,55.0,46.9,29.92,SE,135,0.0,0.0,74,0.00,CLR,FEW,0.00,WeatherDisplay:10.37,2013-06-23 06:36:00,
2013-06-22 23:41:00,54.9,47.1,29.93,SE,135,0.0,0.0,75,0.00,CLR,FEW,0.00,WeatherDisplay:10.37,2013-06-23 06:41:00,
2013-06-22 23:46:00,54.7,46.9,29.93,SE,135,0.0,0.0,75,0.00,CLR,FEW,0.00,WeatherDisplay:10.37,2013-06-23 06:46:00,
2013-06-22 23:51:00,54.5,46.7,29.92,SE,135,0.0,0.0,75,0.00,CLR,FEW,0.00,WeatherDisplay:10.37,2013-06-23 06:51:00,
2013-06-22 23:56:00,54.3,46.6,29.92,SE,135,0.0,0.0,75,0.00,CLR,FEW,0.00,WeatherDisplay:10.37,2013-06-23 06:56:00,